sensor_id;sensor_type;location;lat;lon;timestamp;temperature;humidity
65239;SHT30;51827;51.186;6.926;2023-02-01T00:00:38;18.88;49.72
65239;SHT30;51827;51.186;6.926;2023-02-01T00:01:39;18.86;49.77
65239;SHT30;51827;51.186;6.926;2023-02-01T00:02:39;18.86;49.74
65239;SHT30;51827;51.186;6.926;2023-02-01T00:03:39;18.86;49.75
65239;SHT30;51827;51.186;6.926;2023-02-01T00:04:40;18.88;49.71
65239;SHT30;51827;51.186;6.926;2023-02-01T00:05:40;18.85;49.76
65239;SHT30;51827;51.186;6.926;2023-02-01T00:06:40;18.86;49.70
65239;SHT30;51827;51.186;6.926;2023-02-01T00:07:40;18.86;49.76
65239;SHT30;51827;51.186;6.926;2023-02-01T00:08:41;18.85;49.79
65239;SHT30;51827;51.186;6.926;2023-02-01T00:09:41;18.86;49.72
65239;SHT30;51827;51.186;6.926;2023-02-01T00:10:41;18.86;49.74
65239;SHT30;51827;51.186;6.926;2023-02-01T00:11:41;18.86;49.77
65239;SHT30;51827;51.186;6.926;2023-02-01T00:12:42;18.86;49.72
65239;SHT30;51827;51.186;6.926;2023-02-01T00:13:42;18.85;49.71
65239;SHT30;51827;51.186;6.926;2023-02-01T00:14:42;18.85;49.72
65239;SHT30;51827;51.186;6.926;2023-02-01T00:15:42;18.86;49.72
65239;SHT30;51827;51.186;6.926;2023-02-01T00:16:43;18.88;49.76
65239;SHT30;51827;51.186;6.926;2023-02-01T00:17:43;18.85;49.73
65239;SHT30;51827;51.186;6.926;2023-02-01T00:18:44;18.86;49.76
65239;SHT30;51827;51.186;6.926;2023-02-01T00:19:45;18.86;49.71
65239;SHT30;51827;51.186;6.926;2023-02-01T00:20:46;18.85;49.72
65239;SHT30;51827;51.186;6.926;2023-02-01T00:21:46;18.84;49.75
65239;SHT30;51827;51.186;6.926;2023-02-01T00:22:47;18.88;49.74
65239;SHT30;51827;51.186;6.926;2023-02-01T00:23:47;18.85;49.67
65239;SHT30;51827;51.186;6.926;2023-02-01T00:24:48;18.85;49.76
65239;SHT30;51827;51.186;6.926;2023-02-01T00:25:48;18.85;49.72
65239;SHT30;51827;51.186;6.926;2023-02-01T00:26:48;18.85;49.74
65239;SHT30;51827;51.186;6.926;2023-02-01T00:27:49;18.86;49.72
65239;SHT30;51827;51.186;6.926;2023-02-01T00:28:49;18.88;49.72
65239;SHT30;51827;51.186;6.926;2023-02-01T00:29:49;18.88;49.71
65239;SHT30;51827;51.186;6.926;2023-02-01T00:30:56;18.89;49.65
65239;SHT30;51827;51.186;6.926;2023-02-01T00:31:57;18.86;49.66
65239;SHT30;51827;51.186;6.926;2023-02-01T00:32:57;18.85;49.68
65239;SHT30;51827;51.186;6.926;2023-02-01T00:33:57;18.86;49.68
65239;SHT30;51827;51.186;6.926;2023-02-01T00:34:57;18.88;49.68
65239;SHT30;51827;51.186;6.926;2023-02-01T00:36:03;18.86;49.65
65239;SHT30;51827;51.186;6.926;2023-02-01T00:37:04;18.88;49.67
65239;SHT30;51827;51.186;6.926;2023-02-01T00:38:04;18.85;49.65
65239;SHT30;51827;51.186;6.926;2023-02-01T00:39:04;18.86;49.67
65239;SHT30;51827;51.186;6.926;2023-02-01T00:40:05;18.86;49.66
65239;SHT30;51827;51.186;6.926;2023-02-01T00:41:26;18.85;49.72
65239;SHT30;51827;51.186;6.926;2023-02-01T00:42:26;18.85;49.71
65239;SHT30;51827;51.186;6.926;2023-02-01T00:43:26;18.85;49.68
65239;SHT30;51827;51.186;6.926;2023-02-01T00:44:26;18.85;49.70
65239;SHT30;51827;51.186;6.926;2023-02-01T00:45:27;18.85;49.68
65239;SHT30;51827;51.186;6.926;2023-02-01T00:46:27;18.86;49.68
65239;SHT30;51827;51.186;6.926;2023-02-01T00:47:27;18.85;49.66
65239;SHT30;51827;51.186;6.926;2023-02-01T00:48:28;18.85;49.70
65239;SHT30;51827;51.186;6.926;2023-02-01T00:49:28;18.86;49.70
65239;SHT30;51827;51.186;6.926;2023-02-01T00:50:28;18.86;49.63
65239;SHT30;51827;51.186;6.926;2023-02-01T00:51:29;18.85;49.65
65239;SHT30;51827;51.186;6.926;2023-02-01T00:52:30;18.86;49.62
65239;SHT30;51827;51.186;6.926;2023-02-01T00:53:30;18.85;49.66
65239;SHT30;51827;51.186;6.926;2023-02-01T00:54:30;18.88;49.74
65239;SHT30;51827;51.186;6.926;2023-02-01T00:55:31;18.84;49.65
65239;SHT30;51827;51.186;6.926;2023-02-01T00:56:31;18.84;49.67
65239;SHT30;51827;51.186;6.926;2023-02-01T00:57:31;18.85;49.67
65239;SHT30;51827;51.186;6.926;2023-02-01T00:58:32;18.84;49.67
65239;SHT30;51827;51.186;6.926;2023-02-01T00:59:32;18.85;49.69
65239;SHT30;51827;51.186;6.926;2023-02-01T01:00:33;18.84;49.68
65239;SHT30;51827;51.186;6.926;2023-02-01T01:01:33;18.84;49.68
65239;SHT30;51827;51.186;6.926;2023-02-01T01:02:33;18.86;49.65
65239;SHT30;51827;51.186;6.926;2023-02-01T01:03:35;18.84;49.72
65239;SHT30;51827;51.186;6.926;2023-02-01T01:04:36;18.84;49.69
65239;SHT30;51827;51.186;6.926;2023-02-01T01:05:36;18.82;49.69
65239;SHT30;51827;51.186;6.926;2023-02-01T01:06:36;18.84;49.69
65239;SHT30;51827;51.186;6.926;2023-02-01T01:07:36;18.84;49.67
65239;SHT30;51827;51.186;6.926;2023-02-01T01:08:38;18.85;49.65
65239;SHT30;51827;51.186;6.926;2023-02-01T01:09:38;18.85;49.63
65239;SHT30;51827;51.186;6.926;2023-02-01T01:10:39;18.86;49.67
65239;SHT30;51827;51.186;6.926;2023-02-01T01:11:39;18.85;49.69
65239;SHT30;51827;51.186;6.926;2023-02-01T01:12:39;18.85;49.71
65239;SHT30;51827;51.186;6.926;2023-02-01T01:13:40;18.84;49.65
65239;SHT30;51827;51.186;6.926;2023-02-01T01:14:41;18.84;49.63
65239;SHT30;51827;51.186;6.926;2023-02-01T01:15:41;18.85;49.67
65239;SHT30;51827;51.186;6.926;2023-02-01T01:16:41;18.84;49.70
65239;SHT30;51827;51.186;6.926;2023-02-01T01:17:42;18.84;49.66
65239;SHT30;51827;51.186;6.926;2023-02-01T01:18:43;18.86;49.67
65239;SHT30;51827;51.186;6.926;2023-02-01T01:19:43;18.88;49.65
65239;SHT30;51827;51.186;6.926;2023-02-01T01:20:43;18.88;49.70
65239;SHT30;51827;51.186;6.926;2023-02-01T01:21:44;18.84;49.67
65239;SHT30;51827;51.186;6.926;2023-02-01T01:22:44;18.84;49.62
65239;SHT30;51827;51.186;6.926;2023-02-01T01:23:45;18.84;49.62
65239;SHT30;51827;51.186;6.926;2023-02-01T01:24:46;18.88;49.66
65239;SHT30;51827;51.186;6.926;2023-02-01T01:25:46;18.85;49.67
65239;SHT30;51827;51.186;6.926;2023-02-01T01:26:46;18.86;49.68
65239;SHT30;51827;51.186;6.926;2023-02-01T01:27:47;18.85;49.67
65239;SHT30;51827;51.186;6.926;2023-02-01T01:28:47;18.84;49.66
65239;SHT30;51827;51.186;6.926;2023-02-01T01:29:47;18.84;49.67
65239;SHT30;51827;51.186;6.926;2023-02-01T01:30:47;18.85;49.65
65239;SHT30;51827;51.186;6.926;2023-02-01T01:31:48;18.86;49.63
65239;SHT30;51827;51.186;6.926;2023-02-01T01:32:48;18.84;49.63
65239;SHT30;51827;51.186;6.926;2023-02-01T01:33:53;18.85;49.63
65239;SHT30;51827;51.186;6.926;2023-02-01T01:34:53;18.85;49.68
65239;SHT30;51827;51.186;6.926;2023-02-01T01:35:54;18.85;49.63
65239;SHT30;51827;51.186;6.926;2023-02-01T01:36:54;18.86;49.65
65239;SHT30;51827;51.186;6.926;2023-02-01T01:37:54;18.85;49.63
65239;SHT30;51827;51.186;6.926;2023-02-01T01:38:55;18.85;49.66
65239;SHT30;51827;51.186;6.926;2023-02-01T01:39:55;18.85;49.63
65239;SHT30;51827;51.186;6.926;2023-02-01T01:40:55;18.85;49.66
65239;SHT30;51827;51.186;6.926;2023-02-01T01:41:56;18.86;49.61
65239;SHT30;51827;51.186;6.926;2023-02-01T01:42:57;18.84;49.66
65239;SHT30;51827;51.186;6.926;2023-02-01T01:44:02;18.88;49.62
65239;SHT30;51827;51.186;6.926;2023-02-01T01:46:15;18.85;49.65
65239;SHT30;51827;51.186;6.926;2023-02-01T01:47:16;18.84;49.62
65239;SHT30;51827;51.186;6.926;2023-02-01T01:48:26;18.85;49.62
65239;SHT30;51827;51.186;6.926;2023-02-01T01:49:27;18.82;49.62
65239;SHT30;51827;51.186;6.926;2023-02-01T01:50:37;18.85;49.62
65239;SHT30;51827;51.186;6.926;2023-02-01T01:51:55;18.85;49.57
65239;SHT30;51827;51.186;6.926;2023-02-01T01:52:58;18.86;49.65
65239;SHT30;51827;51.186;6.926;2023-02-01T01:54:22;18.86;49.62
65239;SHT30;51827;51.186;6.926;2023-02-01T01:55:26;18.86;49.60
65239;SHT30;51827;51.186;6.926;2023-02-01T01:56:28;18.85;49.62
65239;SHT30;51827;51.186;6.926;2023-02-01T01:57:34;18.86;49.63
65239;SHT30;51827;51.186;6.926;2023-02-01T01:58:36;18.85;49.60
65239;SHT30;51827;51.186;6.926;2023-02-01T01:59:37;18.84;49.57
65239;SHT30;51827;51.186;6.926;2023-02-01T02:00:39;18.85;49.60
65239;SHT30;51827;51.186;6.926;2023-02-01T02:01:39;18.86;49.62
65239;SHT30;51827;51.186;6.926;2023-02-01T02:02:45;18.82;49.59
65239;SHT30;51827;51.186;6.926;2023-02-01T02:03:47;18.84;49.62
65239;SHT30;51827;51.186;6.926;2023-02-01T02:04:48;18.85;49.61
65239;SHT30;51827;51.186;6.926;2023-02-01T02:05:50;18.85;49.63
65239;SHT30;51827;51.186;6.926;2023-02-01T02:07:01;18.86;49.62
65239;SHT30;51827;51.186;6.926;2023-02-01T02:08:02;18.86;49.62
65239;SHT30;51827;51.186;6.926;2023-02-01T02:09:03;18.85;49.59
65239;SHT30;51827;51.186;6.926;2023-02-01T02:10:05;18.85;49.61
65239;SHT30;51827;51.186;6.926;2023-02-01T02:11:07;18.82;49.65
65239;SHT30;51827;51.186;6.926;2023-02-01T02:12:07;18.85;49.62
65239;SHT30;51827;51.186;6.926;2023-02-01T02:13:07;18.81;49.62
65239;SHT30;51827;51.186;6.926;2023-02-01T02:14:11;18.82;49.58
65239;SHT30;51827;51.186;6.926;2023-02-01T02:15:15;18.85;49.61
65239;SHT30;51827;51.186;6.926;2023-02-01T02:29:40;18.85;49.56
65239;SHT30;51827;51.186;6.926;2023-02-01T02:38:56;18.82;49.55
65239;SHT30;51827;51.186;6.926;2023-02-01T02:41:19;18.84;49.57
65239;SHT30;51827;51.186;6.926;2023-02-01T02:42:34;18.84;49.55
65239;SHT30;51827;51.186;6.926;2023-02-01T02:43:48;18.85;49.54
65239;SHT30;51827;51.186;6.926;2023-02-01T02:45:11;18.82;49.54
65239;SHT30;51827;51.186;6.926;2023-02-01T02:46:27;18.84;49.54
65239;SHT30;51827;51.186;6.926;2023-02-01T02:47:55;18.84;49.50
65239;SHT30;51827;51.186;6.926;2023-02-01T02:49:12;18.84;49.49
65239;SHT30;51827;51.186;6.926;2023-02-01T02:50:22;18.86;49.51
65239;SHT30;51827;51.186;6.926;2023-02-01T02:51:29;18.85;49.51
65239;SHT30;51827;51.186;6.926;2023-02-01T02:52:36;18.82;49.54
65239;SHT30;51827;51.186;6.926;2023-02-01T02:53:48;18.81;49.51
65239;SHT30;51827;51.186;6.926;2023-02-01T02:54:50;18.85;49.52
65239;SHT30;51827;51.186;6.926;2023-02-01T02:55:52;18.84;49.52
65239;SHT30;51827;51.186;6.926;2023-02-01T02:56:53;18.84;49.54
65239;SHT30;51827;51.186;6.926;2023-02-01T02:57:56;18.85;49.53
65239;SHT30;51827;51.186;6.926;2023-02-01T02:58:58;18.85;49.51
65239;SHT30;51827;51.186;6.926;2023-02-01T03:00:01;18.82;49.45
65239;SHT30;51827;51.186;6.926;2023-02-01T03:01:04;18.85;49.50
65239;SHT30;51827;51.186;6.926;2023-02-01T03:02:04;18.84;49.49
65239;SHT30;51827;51.186;6.926;2023-02-01T03:03:06;18.85;49.50
65239;SHT30;51827;51.186;6.926;2023-02-01T03:04:07;18.84;49.48
65239;SHT30;51827;51.186;6.926;2023-02-01T03:05:07;18.84;49.48
65239;SHT30;51827;51.186;6.926;2023-02-01T03:06:15;18.84;49.47
65239;SHT30;51827;51.186;6.926;2023-02-01T03:08:44;18.85;49.44
65239;SHT30;51827;51.186;6.926;2023-02-01T03:09:45;18.85;49.44
65239;SHT30;51827;51.186;6.926;2023-02-01T03:11:02;18.88;49.45
65239;SHT30;51827;51.186;6.926;2023-02-01T03:12:11;18.84;49.46
65239;SHT30;51827;51.186;6.926;2023-02-01T03:13:20;18.86;49.42
65239;SHT30;51827;51.186;6.926;2023-02-01T03:14:26;18.85;49.45
65239;SHT30;51827;51.186;6.926;2023-02-01T03:15:39;18.84;49.47
65239;SHT30;51827;51.186;6.926;2023-02-01T03:16:58;18.85;49.42
65239;SHT30;51827;51.186;6.926;2023-02-01T03:18:04;18.82;49.44
65239;SHT30;51827;51.186;6.926;2023-02-01T03:19:25;18.84;49.43
65239;SHT30;51827;51.186;6.926;2023-02-01T03:20:27;18.84;49.43
65239;SHT30;51827;51.186;6.926;2023-02-01T03:21:40;18.84;49.45
65239;SHT30;51827;51.186;6.926;2023-02-01T03:22:41;18.85;49.40
65239;SHT30;51827;51.186;6.926;2023-02-01T03:23:44;18.85;49.48
65239;SHT30;51827;51.186;6.926;2023-02-01T03:25:54;18.84;49.45
65239;SHT30;51827;51.186;6.926;2023-02-01T03:26:57;18.86;49.43
65239;SHT30;51827;51.186;6.926;2023-02-01T03:28:07;18.85;49.43
65239;SHT30;51827;51.186;6.926;2023-02-01T03:29:13;18.85;49.45
65239;SHT30;51827;51.186;6.926;2023-02-01T03:30:40;18.82;49.43
65239;SHT30;51827;51.186;6.926;2023-02-01T03:31:41;18.84;49.39
65239;SHT30;51827;51.186;6.926;2023-02-01T03:32:42;18.85;49.39
65239;SHT30;51827;51.186;6.926;2023-02-01T03:33:42;18.85;49.43
65239;SHT30;51827;51.186;6.926;2023-02-01T03:34:43;18.81;49.37
65239;SHT30;51827;51.186;6.926;2023-02-01T03:35:52;18.84;49.44
65239;SHT30;51827;51.186;6.926;2023-02-01T03:36:59;18.85;49.42
65239;SHT30;51827;51.186;6.926;2023-02-01T03:38:14;18.86;49.40
65239;SHT30;51827;51.186;6.926;2023-02-01T03:39:27;18.85;49.39
65239;SHT30;51827;51.186;6.926;2023-02-01T03:40:33;18.84;49.43
65239;SHT30;51827;51.186;6.926;2023-02-01T03:41:36;18.85;49.37
65239;SHT30;51827;51.186;6.926;2023-02-01T03:42:43;18.86;49.34
65239;SHT30;51827;51.186;6.926;2023-02-01T03:44:12;18.88;49.38
65239;SHT30;51827;51.186;6.926;2023-02-01T03:45:19;18.82;49.37
65239;SHT30;51827;51.186;6.926;2023-02-01T03:46:33;18.85;49.36
65239;SHT30;51827;51.186;6.926;2023-02-01T03:47:37;18.86;49.37
65239;SHT30;51827;51.186;6.926;2023-02-01T03:48:40;18.82;49.36
65239;SHT30;51827;51.186;6.926;2023-02-01T03:49:55;18.84;49.32
65239;SHT30;51827;51.186;6.926;2023-02-01T03:51:00;18.84;49.35
65239;SHT30;51827;51.186;6.926;2023-02-01T03:52:02;18.84;49.36
65239;SHT30;51827;51.186;6.926;2023-02-01T03:53:09;18.82;49.36
65239;SHT30;51827;51.186;6.926;2023-02-01T03:54:13;18.85;49.37
65239;SHT30;51827;51.186;6.926;2023-02-01T03:55:17;18.85;49.36
65239;SHT30;51827;51.186;6.926;2023-02-01T03:56:18;18.84;49.34
65239;SHT30;51827;51.186;6.926;2023-02-01T03:57:26;18.82;49.37
65239;SHT30;51827;51.186;6.926;2023-02-01T03:58:26;18.82;49.40
65239;SHT30;51827;51.186;6.926;2023-02-01T03:59:27;18.85;49.34
65239;SHT30;51827;51.186;6.926;2023-02-01T04:00:27;18.84;49.34
65239;SHT30;51827;51.186;6.926;2023-02-01T04:01:29;18.84;49.34
65239;SHT30;51827;51.186;6.926;2023-02-01T04:02:30;18.85;49.39
65239;SHT30;51827;51.186;6.926;2023-02-01T04:03:30;18.84;49.33
65239;SHT30;51827;51.186;6.926;2023-02-01T04:04:30;18.85;49.37
65239;SHT30;51827;51.186;6.926;2023-02-01T04:05:31;18.85;49.34
65239;SHT30;51827;51.186;6.926;2023-02-01T04:06:31;18.82;49.33
65239;SHT30;51827;51.186;6.926;2023-02-01T04:07:32;18.84;49.34
65239;SHT30;51827;51.186;6.926;2023-02-01T04:08:32;18.84;49.36
65239;SHT30;51827;51.186;6.926;2023-02-01T04:09:32;18.85;49.32
65239;SHT30;51827;51.186;6.926;2023-02-01T04:10:32;18.84;49.35
65239;SHT30;51827;51.186;6.926;2023-02-01T04:11:33;18.85;49.32
65239;SHT30;51827;51.186;6.926;2023-02-01T04:12:33;18.85;49.31
65239;SHT30;51827;51.186;6.926;2023-02-01T04:13:33;18.86;49.32
65239;SHT30;51827;51.186;6.926;2023-02-01T04:14:33;18.82;49.29
65239;SHT30;51827;51.186;6.926;2023-02-01T04:15:34;18.84;49.32
65239;SHT30;51827;51.186;6.926;2023-02-01T04:16:34;18.85;49.36
65239;SHT30;51827;51.186;6.926;2023-02-01T04:17:35;18.89;49.29
65239;SHT30;51827;51.186;6.926;2023-02-01T04:18:35;18.85;49.30
65239;SHT30;51827;51.186;6.926;2023-02-01T04:19:35;18.85;49.30
65239;SHT30;51827;51.186;6.926;2023-02-01T04:20:35;18.84;49.32
65239;SHT30;51827;51.186;6.926;2023-02-01T04:21:36;18.85;49.29
65239;SHT30;51827;51.186;6.926;2023-02-01T04:22:36;18.85;49.30
65239;SHT30;51827;51.186;6.926;2023-02-01T04:23:36;18.84;49.26
65239;SHT30;51827;51.186;6.926;2023-02-01T04:24:36;18.84;49.30
65239;SHT30;51827;51.186;6.926;2023-02-01T04:25:37;18.85;49.29
65239;SHT30;51827;51.186;6.926;2023-02-01T04:26:37;18.85;49.28
65239;SHT30;51827;51.186;6.926;2023-02-01T04:27:37;18.84;49.30
65239;SHT30;51827;51.186;6.926;2023-02-01T04:28:37;18.85;49.25
65239;SHT30;51827;51.186;6.926;2023-02-01T04:29:38;18.84;49.25
65239;SHT30;51827;51.186;6.926;2023-02-01T04:30:38;18.84;49.26
65239;SHT30;51827;51.186;6.926;2023-02-01T04:31:38;18.86;49.31
65239;SHT30;51827;51.186;6.926;2023-02-01T04:32:39;18.84;49.29
65239;SHT30;51827;51.186;6.926;2023-02-01T04:33:39;18.85;49.27
65239;SHT30;51827;51.186;6.926;2023-02-01T04:34:39;18.82;49.29
65239;SHT30;51827;51.186;6.926;2023-02-01T04:35:40;18.85;49.27
65239;SHT30;51827;51.186;6.926;2023-02-01T04:36:40;18.86;49.24
65239;SHT30;51827;51.186;6.926;2023-02-01T04:37:40;18.85;49.24
65239;SHT30;51827;51.186;6.926;2023-02-01T04:38:40;18.88;49.23
65239;SHT30;51827;51.186;6.926;2023-02-01T04:39:41;18.86;49.30
65239;SHT30;51827;51.186;6.926;2023-02-01T04:40:41;18.85;49.26
65239;SHT30;51827;51.186;6.926;2023-02-01T04:41:41;18.84;49.29
65239;SHT30;51827;51.186;6.926;2023-02-01T04:42:41;18.86;49.25
65239;SHT30;51827;51.186;6.926;2023-02-01T04:43:42;18.82;49.30
65239;SHT30;51827;51.186;6.926;2023-02-01T04:44:42;18.86;49.26
65239;SHT30;51827;51.186;6.926;2023-02-01T04:45:47;18.85;49.26
65239;SHT30;51827;51.186;6.926;2023-02-01T04:46:48;18.84;49.30
65239;SHT30;51827;51.186;6.926;2023-02-01T04:47:48;18.85;49.27
65239;SHT30;51827;51.186;6.926;2023-02-01T04:48:48;18.82;49.27
65239;SHT30;51827;51.186;6.926;2023-02-01T04:49:49;18.86;49.30
65239;SHT30;51827;51.186;6.926;2023-02-01T04:50:49;18.86;49.27
65239;SHT30;51827;51.186;6.926;2023-02-01T04:51:49;18.86;49.29
65239;SHT30;51827;51.186;6.926;2023-02-01T04:52:49;18.86;49.24
65239;SHT30;51827;51.186;6.926;2023-02-01T04:53:49;18.85;49.25
65239;SHT30;51827;51.186;6.926;2023-02-01T04:54:50;18.85;49.27
65239;SHT30;51827;51.186;6.926;2023-02-01T04:55:50;18.88;49.29
65239;SHT30;51827;51.186;6.926;2023-02-01T04:56:50;18.82;49.28
65239;SHT30;51827;51.186;6.926;2023-02-01T04:57:50;18.86;49.24
65239;SHT30;51827;51.186;6.926;2023-02-01T04:58:51;18.88;49.27
65239;SHT30;51827;51.186;6.926;2023-02-01T04:59:51;18.89;49.21
65239;SHT30;51827;51.186;6.926;2023-02-01T05:00:51;18.86;49.22
65239;SHT30;51827;51.186;6.926;2023-02-01T05:01:51;18.88;49.24
65239;SHT30;51827;51.186;6.926;2023-02-01T05:02:52;18.88;49.24
65239;SHT30;51827;51.186;6.926;2023-02-01T05:03:52;18.86;49.29
65239;SHT30;51827;51.186;6.926;2023-02-01T05:04:52;18.88;49.24
65239;SHT30;51827;51.186;6.926;2023-02-01T05:05:52;18.88;49.23
65239;SHT30;51827;51.186;6.926;2023-02-01T05:06:53;18.88;49.21
65239;SHT30;51827;51.186;6.926;2023-02-01T05:07:53;18.89;49.24
65239;SHT30;51827;51.186;6.926;2023-02-01T05:08:53;18.88;49.23
65239;SHT30;51827;51.186;6.926;2023-02-01T05:09:54;18.89;49.23
65239;SHT30;51827;51.186;6.926;2023-02-01T05:10:54;18.88;49.23
65239;SHT30;51827;51.186;6.926;2023-02-01T05:11:54;18.88;49.20
65239;SHT30;51827;51.186;6.926;2023-02-01T05:12:54;18.86;49.23
65239;SHT30;51827;51.186;6.926;2023-02-01T05:13:55;18.88;49.25
65239;SHT30;51827;51.186;6.926;2023-02-01T05:14:55;18.91;49.23
65239;SHT30;51827;51.186;6.926;2023-02-01T05:15:55;18.91;49.26
65239;SHT30;51827;51.186;6.926;2023-02-01T05:16:55;18.88;49.22
65239;SHT30;51827;51.186;6.926;2023-02-01T05:17:56;18.89;49.23
65239;SHT30;51827;51.186;6.926;2023-02-01T05:18:56;18.89;49.21
65239;SHT30;51827;51.186;6.926;2023-02-01T05:19:57;18.89;49.20
65239;SHT30;51827;51.186;6.926;2023-02-01T05:20:57;18.91;49.22
65239;SHT30;51827;51.186;6.926;2023-02-01T05:21:57;18.86;49.22
65239;SHT30;51827;51.186;6.926;2023-02-01T05:22:57;18.88;49.22
65239;SHT30;51827;51.186;6.926;2023-02-01T05:23:58;18.86;49.20
65239;SHT30;51827;51.186;6.926;2023-02-01T05:24:58;18.88;49.21
65239;SHT30;51827;51.186;6.926;2023-02-01T05:26:01;18.89;49.22
65239;SHT30;51827;51.186;6.926;2023-02-01T05:27:02;18.88;49.34
65239;SHT30;51827;51.186;6.926;2023-02-01T05:28:02;18.88;49.31
65239;SHT30;51827;51.186;6.926;2023-02-01T05:29:03;18.88;49.34
65239;SHT30;51827;51.186;6.926;2023-02-01T05:30:05;18.91;49.33
65239;SHT30;51827;51.186;6.926;2023-02-01T05:31:10;18.88;49.29
65239;SHT30;51827;51.186;6.926;2023-02-01T05:32:10;18.89;49.36
65239;SHT30;51827;51.186;6.926;2023-02-01T05:33:10;18.86;49.42
65239;SHT30;51827;51.186;6.926;2023-02-01T05:34:10;18.89;49.41
65239;SHT30;51827;51.186;6.926;2023-02-01T05:35:11;18.91;49.38
65239;SHT30;51827;51.186;6.926;2023-02-01T05:36:11;18.88;49.36
65239;SHT30;51827;51.186;6.926;2023-02-01T05:37:11;18.89;49.38
65239;SHT30;51827;51.186;6.926;2023-02-01T05:38:12;18.89;49.36
65239;SHT30;51827;51.186;6.926;2023-02-01T05:39:12;18.89;49.33
65239;SHT30;51827;51.186;6.926;2023-02-01T05:40:12;18.91;49.35
65239;SHT30;51827;51.186;6.926;2023-02-01T05:41:12;18.88;49.36
65239;SHT30;51827;51.186;6.926;2023-02-01T05:42:13;18.91;49.38
65239;SHT30;51827;51.186;6.926;2023-02-01T05:43:13;18.89;49.38
65239;SHT30;51827;51.186;6.926;2023-02-01T05:44:13;18.92;49.36
65239;SHT30;51827;51.186;6.926;2023-02-01T05:45:14;18.89;49.35
65239;SHT30;51827;51.186;6.926;2023-02-01T05:46:14;18.88;49.35
65239;SHT30;51827;51.186;6.926;2023-02-01T05:47:15;18.88;49.32
65239;SHT30;51827;51.186;6.926;2023-02-01T05:48:15;18.91;49.29
65239;SHT30;51827;51.186;6.926;2023-02-01T05:49:15;18.89;49.29
65239;SHT30;51827;51.186;6.926;2023-02-01T05:50:16;18.89;49.34
65239;SHT30;51827;51.186;6.926;2023-02-01T05:51:16;18.89;49.27
65239;SHT30;51827;51.186;6.926;2023-02-01T05:52:16;18.91;49.31
65239;SHT30;51827;51.186;6.926;2023-02-01T05:53:17;18.95;49.28
65239;SHT30;51827;51.186;6.926;2023-02-01T05:54:17;18.91;49.28
65239;SHT30;51827;51.186;6.926;2023-02-01T05:55:17;18.92;49.24
65239;SHT30;51827;51.186;6.926;2023-02-01T05:56:17;18.94;49.26
65239;SHT30;51827;51.186;6.926;2023-02-01T05:57:18;18.91;49.26
65239;SHT30;51827;51.186;6.926;2023-02-01T05:58:18;18.91;49.30
65239;SHT30;51827;51.186;6.926;2023-02-01T05:59:18;18.92;49.27
65239;SHT30;51827;51.186;6.926;2023-02-01T06:00:19;18.91;49.30
65239;SHT30;51827;51.186;6.926;2023-02-01T06:01:19;18.89;49.30
65239;SHT30;51827;51.186;6.926;2023-02-01T06:02:19;18.91;49.29
65239;SHT30;51827;51.186;6.926;2023-02-01T06:03:20;18.91;49.27
65239;SHT30;51827;51.186;6.926;2023-02-01T06:04:20;18.89;49.29
65239;SHT30;51827;51.186;6.926;2023-02-01T06:05:20;18.92;49.29
65239;SHT30;51827;51.186;6.926;2023-02-01T06:06:21;18.89;49.28
65239;SHT30;51827;51.186;6.926;2023-02-01T06:07:21;18.89;49.23
65239;SHT30;51827;51.186;6.926;2023-02-01T06:08:21;18.92;49.24
65239;SHT30;51827;51.186;6.926;2023-02-01T06:09:22;18.92;49.27
65239;SHT30;51827;51.186;6.926;2023-02-01T06:10:22;18.94;49.26
65239;SHT30;51827;51.186;6.926;2023-02-01T06:11:22;18.89;49.23
65239;SHT30;51827;51.186;6.926;2023-02-01T06:12:23;18.89;49.28
65239;SHT30;51827;51.186;6.926;2023-02-01T06:13:23;18.88;49.24
65239;SHT30;51827;51.186;6.926;2023-02-01T06:14:23;18.91;49.27
65239;SHT30;51827;51.186;6.926;2023-02-01T06:15:23;18.89;49.24
65239;SHT30;51827;51.186;6.926;2023-02-01T06:16:24;18.89;49.20
65239;SHT30;51827;51.186;6.926;2023-02-01T06:17:24;18.91;49.21
65239;SHT30;51827;51.186;6.926;2023-02-01T06:18:25;18.89;49.27
65239;SHT30;51827;51.186;6.926;2023-02-01T06:19:25;18.89;49.20
65239;SHT30;51827;51.186;6.926;2023-02-01T06:20:25;18.89;49.25
65239;SHT30;51827;51.186;6.926;2023-02-01T06:21:26;18.86;49.29
65239;SHT30;51827;51.186;6.926;2023-02-01T06:22:26;18.89;49.24
65239;SHT30;51827;51.186;6.926;2023-02-01T06:23:27;18.91;49.21
65239;SHT30;51827;51.186;6.926;2023-02-01T06:24:28;18.86;49.27
65239;SHT30;51827;51.186;6.926;2023-02-01T06:25:28;18.89;49.23
65239;SHT30;51827;51.186;6.926;2023-02-01T06:26:28;18.89;49.28
65239;SHT30;51827;51.186;6.926;2023-02-01T06:27:29;18.86;49.18
65239;SHT30;51827;51.186;6.926;2023-02-01T06:28:30;18.91;49.24
65239;SHT30;51827;51.186;6.926;2023-02-01T06:29:30;18.88;49.22
65239;SHT30;51827;51.186;6.926;2023-02-01T06:30:31;18.89;49.22
65239;SHT30;51827;51.186;6.926;2023-02-01T06:31:32;18.88;49.22
65239;SHT30;51827;51.186;6.926;2023-02-01T06:32:33;18.88;49.21
65239;SHT30;51827;51.186;6.926;2023-02-01T06:33:34;18.88;49.21
65239;SHT30;51827;51.186;6.926;2023-02-01T06:34:34;18.89;49.20
65239;SHT30;51827;51.186;6.926;2023-02-01T06:35:34;18.86;49.18
65239;SHT30;51827;51.186;6.926;2023-02-01T06:36:35;18.89;49.21
65239;SHT30;51827;51.186;6.926;2023-02-01T06:37:36;18.88;49.21
65239;SHT30;51827;51.186;6.926;2023-02-01T06:38:37;18.89;49.16
65239;SHT30;51827;51.186;6.926;2023-02-01T06:39:37;18.89;49.16
65239;SHT30;51827;51.186;6.926;2023-02-01T06:40:37;18.91;49.16
65239;SHT30;51827;51.186;6.926;2023-02-01T06:41:38;18.88;49.17
65239;SHT30;51827;51.186;6.926;2023-02-01T06:42:38;18.89;49.18
65239;SHT30;51827;51.186;6.926;2023-02-01T06:43:38;18.91;49.19
65239;SHT30;51827;51.186;6.926;2023-02-01T06:44:39;18.91;49.14
65239;SHT30;51827;51.186;6.926;2023-02-01T06:45:39;18.91;49.13
65239;SHT30;51827;51.186;6.926;2023-02-01T06:46:39;18.91;49.16
65239;SHT30;51827;51.186;6.926;2023-02-01T06:47:40;18.92;49.10
65239;SHT30;51827;51.186;6.926;2023-02-01T06:48:40;18.91;49.10
65239;SHT30;51827;51.186;6.926;2023-02-01T06:49:40;18.92;49.11
65239;SHT30;51827;51.186;6.926;2023-02-01T06:50:41;18.91;49.13
65239;SHT30;51827;51.186;6.926;2023-02-01T06:51:41;18.89;49.13
65239;SHT30;51827;51.186;6.926;2023-02-01T06:52:41;18.88;49.16
65239;SHT30;51827;51.186;6.926;2023-02-01T06:53:42;18.89;49.11
65239;SHT30;51827;51.186;6.926;2023-02-01T06:54:42;18.89;49.14
65239;SHT30;51827;51.186;6.926;2023-02-01T06:55:54;18.92;49.12
65239;SHT30;51827;51.186;6.926;2023-02-01T06:56:55;18.92;49.09
65239;SHT30;51827;51.186;6.926;2023-02-01T06:57:55;18.89;49.12
65239;SHT30;51827;51.186;6.926;2023-02-01T06:58:55;18.91;49.15